createdAt,value
2018-06-09T00:00:02.701Z,12.6
2018-06-09T00:15:03.007Z,12.6
2018-06-09T00:30:02.504Z,12.6
2018-06-09T00:45:02.911Z,12.6
2018-06-09T01:00:03.235Z,12.6
2018-06-09T01:15:02.590Z,12.6
2018-06-09T01:30:02.984Z,12.6
2018-06-09T01:45:02.293Z,12.6
2018-06-09T02:00:02.723Z,12.6
2018-06-09T02:15:03.155Z,12.6
2018-06-09T02:30:02.649Z,12.5
2018-06-09T02:45:03.066Z,12.5
2018-06-09T03:00:02.488Z,12.5
2018-06-09T03:15:02.871Z,12.4
2018-06-09T03:30:02.338Z,12.4
2018-06-09T03:45:02.834Z,12.4
2018-06-09T04:00:03.254Z,12.4
2018-06-09T04:15:02.594Z,12.4
2018-06-09T04:30:02.984Z,12.3
2018-06-09T04:45:02.345Z,12.3
2018-06-09T05:00:02.675Z,12.3
2018-06-09T05:15:02.958Z,12.2
2018-06-09T05:30:02.433Z,12.2
2018-06-09T05:45:02.830Z,12.2
2018-06-09T06:00:03.463Z,12.2
2018-06-09T06:15:02.781Z,12.2
2018-06-09T06:30:02.348Z,12.2
2018-06-09T06:45:02.801Z,12.2
2018-06-09T07:00:03.389Z,12.2
2018-06-09T07:15:02.758Z,12.2
2018-06-09T07:30:03.219Z,12.2
2018-06-09T07:45:02.602Z,12.1
2018-06-09T08:00:02.972Z,12.1
2018-06-09T08:15:02.370Z,12.2
2018-06-09T08:30:02.815Z,12.1
2018-06-09T08:45:03.170Z,12.2
2018-06-09T09:00:02.537Z,12.2
2018-06-09T09:15:02.956Z,12.2
2018-06-09T09:30:02.434Z,12.1
2018-06-09T09:45:02.796Z,12.1
2018-06-09T10:00:03.157Z,12.1
2018-06-09T10:15:02.911Z,12.1
2018-06-09T10:30:02.340Z,12.2
2018-06-09T10:45:02.793Z,12.2
2018-06-09T11:00:03.280Z,12.3
2018-06-09T11:15:02.644Z,12.3
2018-06-09T11:30:03.038Z,12.4
2018-06-09T11:45:02.436Z,12.4
2018-06-09T12:00:02.750Z,12.5
2018-06-09T12:15:03.081Z,12.5
2018-06-09T12:30:02.495Z,12.6
2018-06-09T12:45:02.776Z,12.6
2018-06-09T13:00:03.115Z,12.6
2018-06-09T13:15:02.497Z,12.6
2018-06-09T13:30:02.860Z,12.7
2018-06-09T13:45:03.306Z,12.8
2018-06-09T14:00:02.648Z,12.8
2018-06-09T14:15:03.210Z,12.8
2018-06-09T14:30:02.654Z,12.8
2018-06-09T14:45:02.976Z,12.9
2018-06-09T15:00:02.248Z,12.8
2018-06-09T15:15:02.698Z,12.8
2018-06-09T15:30:03.190Z,12.8
2018-06-09T15:45:02.552Z,12.8
2018-06-09T16:00:02.868Z,12.8
2018-06-09T16:15:03.241Z,12.8
2018-06-09T16:30:02.707Z,12.8
2018-06-09T16:45:03.095Z,12.8
2018-06-09T17:00:02.469Z,12.8
2018-06-09T17:15:02.841Z,12.8
2018-06-09T17:30:03.316Z,12.7
2018-06-09T17:45:02.635Z,12.7
2018-06-09T18:00:02.990Z,12.6
2018-06-09T18:15:02.501Z,12.6
2018-06-09T18:30:02.976Z,12.6
2018-06-09T18:45:02.359Z,12.6
2018-06-09T19:00:02.730Z,12.5
2018-06-09T19:15:03.231Z,12.5
2018-06-09T19:30:02.637Z,12.4
2018-06-09T19:45:02.972Z,12.4
2018-06-09T20:00:02.282Z,12.4
2018-06-09T20:15:02.733Z,12.4
2018-06-09T20:30:03.195Z,12.4
2018-06-09T20:45:02.529Z,12.4
2018-06-09T21:00:02.857Z,12.3
2018-06-09T21:15:03.206Z,12.3
2018-06-09T21:30:02.737Z,12.3
2018-06-09T21:45:03.180Z,12.3
2018-06-09T22:00:02.601Z,12.3
2018-06-09T22:15:03.028Z,12.3
2018-06-09T22:30:02.555Z,12.3
2018-06-09T22:45:02.981Z,12.3
2018-06-09T23:00:02.427Z,12.3
2018-06-09T23:15:02.778Z,12.3
2018-06-09T23:30:03.260Z,12.3
2018-06-09T23:45:02.660Z,12.3
